sensor_id;sensor_type;location;lat;lon;timestamp;temperature;humidity
11426;DHT22;5769;47.998;7.788;2023-07-29T00:01:00;22.80;80.90
11426;DHT22;5769;47.998;7.788;2023-07-29T00:03:26;22.70;80.10
11426;DHT22;5769;47.998;7.788;2023-07-29T00:05:55;22.60;80.00
11426;DHT22;5769;47.998;7.788;2023-07-29T00:08:22;22.60;79.90
11426;DHT22;5769;47.998;7.788;2023-07-29T00:10:48;22.80;80.10
11426;DHT22;5769;47.998;7.788;2023-07-29T00:13:16;22.60;80.10
11426;DHT22;5769;47.998;7.788;2023-07-29T00:15:43;22.70;80.00
11426;DHT22;5769;47.998;7.788;2023-07-29T00:18:10;22.60;79.90
11426;DHT22;5769;47.998;7.788;2023-07-29T00:20:37;22.70;80.00
11426;DHT22;5769;47.998;7.788;2023-07-29T00:23:04;22.60;80.10
11426;DHT22;5769;47.998;7.788;2023-07-29T00:25:30;22.60;80.10
11426;DHT22;5769;47.998;7.788;2023-07-29T00:27:58;22.60;80.10
11426;DHT22;5769;47.998;7.788;2023-07-29T00:30:26;22.80;80.10
11426;DHT22;5769;47.998;7.788;2023-07-29T00:32:53;22.70;80.10
11426;DHT22;5769;47.998;7.788;2023-07-29T00:35:19;22.70;80.00
11426;DHT22;5769;47.998;7.788;2023-07-29T00:37:46;22.60;80.00
11426;DHT22;5769;47.998;7.788;2023-07-29T00:40:15;22.80;80.20
11426;DHT22;5769;47.998;7.788;2023-07-29T00:42:42;22.60;80.00
11426;DHT22;5769;47.998;7.788;2023-07-29T00:45:09;22.60;80.00
11426;DHT22;5769;47.998;7.788;2023-07-29T00:47:38;22.60;79.90
11426;DHT22;5769;47.998;7.788;2023-07-29T00:50:06;22.70;80.00
11426;DHT22;5769;47.998;7.788;2023-07-29T00:52:33;22.70;80.00
11426;DHT22;5769;47.998;7.788;2023-07-29T00:55:00;22.60;79.80
11426;DHT22;5769;47.998;7.788;2023-07-29T00:57:27;22.60;80.00
11426;DHT22;5769;47.998;7.788;2023-07-29T00:59:55;22.60;79.90
11426;DHT22;5769;47.998;7.788;2023-07-29T01:02:22;22.60;80.00
11426;DHT22;5769;47.998;7.788;2023-07-29T01:04:53;22.80;80.10
11426;DHT22;5769;47.998;7.788;2023-07-29T01:07:27;22.70;80.20
11426;DHT22;5769;47.998;7.788;2023-07-29T01:10:00;22.70;80.20
11426;DHT22;5769;47.998;7.788;2023-07-29T01:12:35;22.80;80.10
11426;DHT22;5769;47.998;7.788;2023-07-29T01:15:10;22.60;80.10
11426;DHT22;5769;47.998;7.788;2023-07-29T01:17:42;22.60;80.00
11426;DHT22;5769;47.998;7.788;2023-07-29T01:20:14;22.60;80.00
11426;DHT22;5769;47.998;7.788;2023-07-29T01:22:41;22.60;79.80
11426;DHT22;5769;47.998;7.788;2023-07-29T01:25:09;22.70;80.00
11426;DHT22;5769;47.998;7.788;2023-07-29T01:27:36;22.60;80.00
11426;DHT22;5769;47.998;7.788;2023-07-29T01:30:04;22.60;80.10
11426;DHT22;5769;47.998;7.788;2023-07-29T01:32:37;22.60;80.10
11426;DHT22;5769;47.998;7.788;2023-07-29T01:35:14;22.60;80.10
11426;DHT22;5769;47.998;7.788;2023-07-29T01:37:41;22.70;80.20
11426;DHT22;5769;47.998;7.788;2023-07-29T01:40:12;22.70;80.90
11426;DHT22;5769;47.998;7.788;2023-07-29T01:42:39;22.70;81.00
11426;DHT22;5769;47.998;7.788;2023-07-29T01:45:06;22.70;80.40
11426;DHT22;5769;47.998;7.788;2023-07-29T01:47:33;22.60;80.20
11426;DHT22;5769;47.998;7.788;2023-07-29T01:50:00;22.70;80.30
11426;DHT22;5769;47.998;7.788;2023-07-29T01:52:26;22.60;80.20
11426;DHT22;5769;47.998;7.788;2023-07-29T01:54:53;22.60;80.20
11426;DHT22;5769;47.998;7.788;2023-07-29T01:57:21;22.60;80.20
11426;DHT22;5769;47.998;7.788;2023-07-29T01:59:48;22.60;80.30
11426;DHT22;5769;47.998;7.788;2023-07-29T02:02:14;22.60;80.20
11426;DHT22;5769;47.998;7.788;2023-07-29T02:04:41;22.60;80.20
11426;DHT22;5769;47.998;7.788;2023-07-29T02:07:08;22.80;80.30
11426;DHT22;5769;47.998;7.788;2023-07-29T02:09:34;22.70;80.20
11426;DHT22;5769;47.998;7.788;2023-07-29T02:12:01;22.60;80.20
11426;DHT22;5769;47.998;7.788;2023-07-29T02:14:29;22.70;80.20
11426;DHT22;5769;47.998;7.788;2023-07-29T02:16:56;22.60;80.20
11426;DHT22;5769;47.998;7.788;2023-07-29T02:19:22;22.60;80.20
11426;DHT22;5769;47.998;7.788;2023-07-29T02:21:49;22.70;80.10
11426;DHT22;5769;47.998;7.788;2023-07-29T02:24:16;22.70;80.00
11426;DHT22;5769;47.998;7.788;2023-07-29T02:26:42;22.50;79.90
11426;DHT22;5769;47.998;7.788;2023-07-29T02:29:09;22.70;79.90
11426;DHT22;5769;47.998;7.788;2023-07-29T02:31:37;22.60;79.80
11426;DHT22;5769;47.998;7.788;2023-07-29T02:34:04;22.50;79.60
11426;DHT22;5769;47.998;7.788;2023-07-29T02:36:30;22.70;79.70
11426;DHT22;5769;47.998;7.788;2023-07-29T02:38:57;22.50;79.60
11426;DHT22;5769;47.998;7.788;2023-07-29T02:41:24;22.60;79.60
11426;DHT22;5769;47.998;7.788;2023-07-29T02:43:51;22.70;79.80
11426;DHT22;5769;47.998;7.788;2023-07-29T02:46:17;22.60;79.70
11426;DHT22;5769;47.998;7.788;2023-07-29T02:48:45;22.70;79.70
11426;DHT22;5769;47.998;7.788;2023-07-29T02:51:12;22.60;79.70
11426;DHT22;5769;47.998;7.788;2023-07-29T02:53:39;22.50;79.60
11426;DHT22;5769;47.998;7.788;2023-07-29T02:56:06;22.70;79.60
11426;DHT22;5769;47.998;7.788;2023-07-29T02:58:35;22.60;79.50
11426;DHT22;5769;47.998;7.788;2023-07-29T03:01:02;22.80;79.70
11426;DHT22;5769;47.998;7.788;2023-07-29T03:03:29;22.60;79.40
11426;DHT22;5769;47.998;7.788;2023-07-29T03:06:01;22.50;79.50
11426;DHT22;5769;47.998;7.788;2023-07-29T03:08:28;22.50;79.50
11426;DHT22;5769;47.998;7.788;2023-07-29T03:10:55;22.70;79.60
11426;DHT22;5769;47.998;7.788;2023-07-29T03:13:22;22.60;80.10
11426;DHT22;5769;47.998;7.788;2023-07-29T03:15:49;22.70;79.60
11426;DHT22;5769;47.998;7.788;2023-07-29T03:18:15;22.60;79.40
11426;DHT22;5769;47.998;7.788;2023-07-29T03:20:42;22.70;79.50
11426;DHT22;5769;47.998;7.788;2023-07-29T03:23:10;22.50;79.40
11426;DHT22;5769;47.998;7.788;2023-07-29T03:25:37;22.60;79.50
11426;DHT22;5769;47.998;7.788;2023-07-29T03:28:03;22.50;79.40
11426;DHT22;5769;47.998;7.788;2023-07-29T03:30:30;22.60;79.50
11426;DHT22;5769;47.998;7.788;2023-07-29T03:32:57;22.70;79.60
11426;DHT22;5769;47.998;7.788;2023-07-29T03:35:23;22.70;79.60
11426;DHT22;5769;47.998;7.788;2023-07-29T03:37:50;22.70;79.50
11426;DHT22;5769;47.998;7.788;2023-07-29T03:40:18;22.60;79.40
11426;DHT22;5769;47.998;7.788;2023-07-29T03:42:45;22.70;79.40
11426;DHT22;5769;47.998;7.788;2023-07-29T03:45:11;22.70;79.40
11426;DHT22;5769;47.998;7.788;2023-07-29T03:47:38;22.50;79.30
11426;DHT22;5769;47.998;7.788;2023-07-29T03:50:06;22.60;79.40
11426;DHT22;5769;47.998;7.788;2023-07-29T03:52:32;22.70;79.60
11426;DHT22;5769;47.998;7.788;2023-07-29T03:54:59;22.50;79.40
11426;DHT22;5769;47.998;7.788;2023-07-29T03:57:27;22.60;79.50
11426;DHT22;5769;47.998;7.788;2023-07-29T03:59:55;22.70;79.50
11426;DHT22;5769;47.998;7.788;2023-07-29T04:02:21;22.60;79.40
11426;DHT22;5769;47.998;7.788;2023-07-29T04:04:48;22.60;79.40
11426;DHT22;5769;47.998;7.788;2023-07-29T04:07:15;22.60;79.40
11426;DHT22;5769;47.998;7.788;2023-07-29T04:09:41;22.50;79.50
11426;DHT22;5769;47.998;7.788;2023-07-29T04:12:09;22.50;79.50
11426;DHT22;5769;47.998;7.788;2023-07-29T04:14:37;22.60;79.60
11426;DHT22;5769;47.998;7.788;2023-07-29T04:17:04;22.70;79.70
11426;DHT22;5769;47.998;7.788;2023-07-29T04:19:31;22.50;79.70
11426;DHT22;5769;47.998;7.788;2023-07-29T04:21:58;22.60;79.90
11426;DHT22;5769;47.998;7.788;2023-07-29T04:24:24;22.50;79.90
11426;DHT22;5769;47.998;7.788;2023-07-29T04:26:51;22.50;79.90
11426;DHT22;5769;47.998;7.788;2023-07-29T04:29:18;22.50;80.00
11426;DHT22;5769;47.998;7.788;2023-07-29T04:31:46;22.60;80.00
11426;DHT22;5769;47.998;7.788;2023-07-29T04:34:12;22.60;80.10
11426;DHT22;5769;47.998;7.788;2023-07-29T04:36:39;22.60;80.10
11426;DHT22;5769;47.998;7.788;2023-07-29T04:39:06;22.60;80.00
11426;DHT22;5769;47.998;7.788;2023-07-29T04:41:33;22.70;80.10
11426;DHT22;5769;47.998;7.788;2023-07-29T04:43:59;22.50;80.00
11426;DHT22;5769;47.998;7.788;2023-07-29T04:46:26;22.70;80.00
11426;DHT22;5769;47.998;7.788;2023-07-29T04:48:54;22.50;80.00
11426;DHT22;5769;47.998;7.788;2023-07-29T04:51:21;22.50;80.00
11426;DHT22;5769;47.998;7.788;2023-07-29T04:53:47;22.60;80.00
11426;DHT22;5769;47.998;7.788;2023-07-29T04:56:14;22.50;80.00
11426;DHT22;5769;47.998;7.788;2023-07-29T04:58:41;22.70;80.00
11426;DHT22;5769;47.998;7.788;2023-07-29T05:01:07;22.50;80.00
11426;DHT22;5769;47.998;7.788;2023-07-29T05:03:35;22.50;79.90
11426;DHT22;5769;47.998;7.788;2023-07-29T05:06:03;22.60;80.10
11426;DHT22;5769;47.998;7.788;2023-07-29T05:08:30;22.60;80.00
11426;DHT22;5769;47.998;7.788;2023-07-29T05:10:57;22.60;79.90
11426;DHT22;5769;47.998;7.788;2023-07-29T05:13:24;22.70;80.00
11426;DHT22;5769;47.998;7.788;2023-07-29T05:15:50;22.60;79.90
11426;DHT22;5769;47.998;7.788;2023-07-29T05:18:17;22.60;79.90
11426;DHT22;5769;47.998;7.788;2023-07-29T05:20:44;22.60;79.80
11426;DHT22;5769;47.998;7.788;2023-07-29T05:23:12;22.50;79.70
11426;DHT22;5769;47.998;7.788;2023-07-29T05:25:39;22.60;79.80
11426;DHT22;5769;47.998;7.788;2023-07-29T05:28:06;22.60;79.90
11426;DHT22;5769;47.998;7.788;2023-07-29T05:30:33;22.70;80.00
11426;DHT22;5769;47.998;7.788;2023-07-29T05:33:02;22.70;80.00
11426;DHT22;5769;47.998;7.788;2023-07-29T05:35:29;22.50;80.00
11426;DHT22;5769;47.998;7.788;2023-07-29T05:37:56;22.50;80.20
11426;DHT22;5769;47.998;7.788;2023-07-29T05:40:24;22.70;80.40
11426;DHT22;5769;47.998;7.788;2023-07-29T05:42:51;22.50;80.40
11426;DHT22;5769;47.998;7.788;2023-07-29T05:45:17;22.70;80.70
11426;DHT22;5769;47.998;7.788;2023-07-29T05:47:44;22.70;80.90
11426;DHT22;5769;47.998;7.788;2023-07-29T05:50:11;22.60;81.00
11426;DHT22;5769;47.998;7.788;2023-07-29T05:52:37;22.60;81.50
11426;DHT22;5769;47.998;7.788;2023-07-29T05:55:05;22.60;81.70
11426;DHT22;5769;47.998;7.788;2023-07-29T05:57:33;22.70;81.90
11426;DHT22;5769;47.998;7.788;2023-07-29T05:59:59;22.70;81.60
11426;DHT22;5769;47.998;7.788;2023-07-29T06:02:26;22.60;81.40
11426;DHT22;5769;47.998;7.788;2023-07-29T06:04:53;22.50;81.20
11426;DHT22;5769;47.998;7.788;2023-07-29T06:07:19;22.60;81.30
11426;DHT22;5769;47.998;7.788;2023-07-29T06:09:46;22.60;81.50
11426;DHT22;5769;47.998;7.788;2023-07-29T06:12:13;22.50;81.50
11426;DHT22;5769;47.998;7.788;2023-07-29T06:14:41;22.60;81.50
11426;DHT22;5769;47.998;7.788;2023-07-29T06:17:08;22.70;81.50
11426;DHT22;5769;47.998;7.788;2023-07-29T06:19:36;22.70;81.50
11426;DHT22;5769;47.998;7.788;2023-07-29T06:22:04;22.60;81.40
11426;DHT22;5769;47.998;7.788;2023-07-29T06:24:31;22.60;81.30
11426;DHT22;5769;47.998;7.788;2023-07-29T06:26:58;22.70;81.40
11426;DHT22;5769;47.998;7.788;2023-07-29T06:29:25;22.60;81.50
11426;DHT22;5769;47.998;7.788;2023-07-29T06:31:53;22.70;81.50
11426;DHT22;5769;47.998;7.788;2023-07-29T06:34:20;22.70;81.60
11426;DHT22;5769;47.998;7.788;2023-07-29T06:36:47;22.60;81.90
11426;DHT22;5769;47.998;7.788;2023-07-29T06:39:14;22.70;81.90
11426;DHT22;5769;47.998;7.788;2023-07-29T06:41:41;22.60;82.20
11426;DHT22;5769;47.998;7.788;2023-07-29T06:44:07;22.70;82.40
11426;DHT22;5769;47.998;7.788;2023-07-29T06:46:34;22.60;82.10
11426;DHT22;5769;47.998;7.788;2023-07-29T06:49:02;22.70;81.90
11426;DHT22;5769;47.998;7.788;2023-07-29T06:51:29;22.50;82.10
11426;DHT22;5769;47.998;7.788;2023-07-29T06:53:58;22.50;82.60
11426;DHT22;5769;47.998;7.788;2023-07-29T06:56:24;22.60;82.50
11426;DHT22;5769;47.998;7.788;2023-07-29T06:58:51;22.50;82.40
11426;DHT22;5769;47.998;7.788;2023-07-29T07:01:18;22.70;82.70
11426;DHT22;5769;47.998;7.788;2023-07-29T07:03:44;22.50;82.90
11426;DHT22;5769;47.998;7.788;2023-07-29T07:06:12;22.50;83.60
11426;DHT22;5769;47.998;7.788;2023-07-29T07:08:39;22.60;84.00
11426;DHT22;5769;47.998;7.788;2023-07-29T07:11:07;22.70;83.90
11426;DHT22;5769;47.998;7.788;2023-07-29T07:13:34;22.60;84.70
11426;DHT22;5769;47.998;7.788;2023-07-29T07:16:03;22.50;87.20
11426;DHT22;5769;47.998;7.788;2023-07-29T07:18:32;22.70;89.40
11426;DHT22;5769;47.998;7.788;2023-07-29T07:20:59;22.70;86.60
11426;DHT22;5769;47.998;7.788;2023-07-29T07:23:29;22.70;86.60
11426;DHT22;5769;47.998;7.788;2023-07-29T07:25:57;22.70;86.40
11426;DHT22;5769;47.998;7.788;2023-07-29T07:28:26;22.50;85.40
11426;DHT22;5769;47.998;7.788;2023-07-29T07:30:53;22.60;85.30
11426;DHT22;5769;47.998;7.788;2023-07-29T07:33:21;22.50;85.30
11426;DHT22;5769;47.998;7.788;2023-07-29T07:35:49;22.50;85.20
11426;DHT22;5769;47.998;7.788;2023-07-29T07:38:16;22.70;85.70
11426;DHT22;5769;47.998;7.788;2023-07-29T07:40:54;22.60;84.80
11426;DHT22;5769;47.998;7.788;2023-07-29T07:43:25;22.50;84.60
11426;DHT22;5769;47.998;7.788;2023-07-29T07:45:58;22.70;84.90
11426;DHT22;5769;47.998;7.788;2023-07-29T07:48:27;22.70;86.40
11426;DHT22;5769;47.998;7.788;2023-07-29T07:50:55;22.50;86.30
11426;DHT22;5769;47.998;7.788;2023-07-29T07:53:23;22.60;85.80
11426;DHT22;5769;47.998;7.788;2023-07-29T07:55:56;22.60;86.00
11426;DHT22;5769;47.998;7.788;2023-07-29T07:58:23;22.70;85.90
11426;DHT22;5769;47.998;7.788;2023-07-29T08:01:01;22.70;85.90
11426;DHT22;5769;47.998;7.788;2023-07-29T08:03:28;22.50;85.70
11426;DHT22;5769;47.998;7.788;2023-07-29T08:05:54;22.50;85.60
11426;DHT22;5769;47.998;7.788;2023-07-29T08:08:21;22.70;85.70
11426;DHT22;5769;47.998;7.788;2023-07-29T08:10:48;22.60;85.50
11426;DHT22;5769;47.998;7.788;2023-07-29T08:13:16;22.50;85.60
11426;DHT22;5769;47.998;7.788;2023-07-29T08:15:46;22.60;85.60
11426;DHT22;5769;47.998;7.788;2023-07-29T08:18:13;22.50;85.20
11426;DHT22;5769;47.998;7.788;2023-07-29T08:20:39;22.70;85.10
11426;DHT22;5769;47.998;7.788;2023-07-29T08:23:06;22.50;84.90
11426;DHT22;5769;47.998;7.788;2023-07-29T08:25:33;22.50;84.80
11426;DHT22;5769;47.998;7.788;2023-07-29T08:28:00;22.50;84.80
11426;DHT22;5769;47.998;7.788;2023-07-29T08:30:29;22.60;84.50
11426;DHT22;5769;47.998;7.788;2023-07-29T08:32:57;22.60;84.50
11426;DHT22;5769;47.998;7.788;2023-07-29T08:35:24;22.50;84.50
11426;DHT22;5769;47.998;7.788;2023-07-29T08:37:51;22.80;84.70
11426;DHT22;5769;47.998;7.788;2023-07-29T08:40:22;22.50;84.40
11426;DHT22;5769;47.998;7.788;2023-07-29T08:42:52;22.70;84.30
11426;DHT22;5769;47.998;7.788;2023-07-29T08:45:21;22.50;84.20
11426;DHT22;5769;47.998;7.788;2023-07-29T08:47:55;22.60;84.10
11426;DHT22;5769;47.998;7.788;2023-07-29T08:50:24;22.50;84.10
11426;DHT22;5769;47.998;7.788;2023-07-29T08:52:54;22.50;84.20
11426;DHT22;5769;47.998;7.788;2023-07-29T08:55:24;22.50;84.20
11426;DHT22;5769;47.998;7.788;2023-07-29T08:57:53;22.50;84.20
11426;DHT22;5769;47.998;7.788;2023-07-29T09:00:23;22.60;84.30
11426;DHT22;5769;47.998;7.788;2023-07-29T09:02:51;22.60;84.30
11426;DHT22;5769;47.998;7.788;2023-07-29T09:05:29;22.60;84.30
11426;DHT22;5769;47.998;7.788;2023-07-29T09:07:56;22.60;84.20
11426;DHT22;5769;47.998;7.788;2023-07-29T09:10:26;22.50;84.20
11426;DHT22;5769;47.998;7.788;2023-07-29T09:12:58;22.50;84.20
11426;DHT22;5769;47.998;7.788;2023-07-29T09:15:27;22.50;84.20
11426;DHT22;5769;47.998;7.788;2023-07-29T09:18:00;22.50;84.30
11426;DHT22;5769;47.998;7.788;2023-07-29T09:20:34;22.60;84.30
11426;DHT22;5769;47.998;7.788;2023-07-29T09:23:09;22.60;84.30
11426;DHT22;5769;47.998;7.788;2023-07-29T09:25:37;22.50;84.30
11426;DHT22;5769;47.998;7.788;2023-07-29T09:28:11;22.60;84.30
11426;DHT22;5769;47.998;7.788;2023-07-29T09:30:42;22.70;84.30
11426;DHT22;5769;47.998;7.788;2023-07-29T09:33:18;22.60;84.30
11426;DHT22;5769;47.998;7.788;2023-07-29T09:35:49;22.70;84.30
11426;DHT22;5769;47.998;7.788;2023-07-29T09:38:26;22.70;84.20
11426;DHT22;5769;47.998;7.788;2023-07-29T09:40:56;22.50;84.10
11426;DHT22;5769;47.998;7.788;2023-07-29T09:43:36;22.60;84.20
11426;DHT22;5769;47.998;7.788;2023-07-29T09:46:06;22.50;84.00
11426;DHT22;5769;47.998;7.788;2023-07-29T09:48:37;22.50;83.80
11426;DHT22;5769;47.998;7.788;2023-07-29T09:51:10;22.70;84.00
11426;DHT22;5769;47.998;7.788;2023-07-29T09:53:40;22.60;84.00
11426;DHT22;5769;47.998;7.788;2023-07-29T09:56:10;22.50;84.00
11426;DHT22;5769;47.998;7.788;2023-07-29T09:58:38;22.70;84.20
11426;DHT22;5769;47.998;7.788;2023-07-29T10:01:08;22.70;84.00
11426;DHT22;5769;47.998;7.788;2023-07-29T10:03:38;22.70;84.10
11426;DHT22;5769;47.998;7.788;2023-07-29T10:06:06;22.70;84.00
11426;DHT22;5769;47.998;7.788;2023-07-29T10:08:33;22.60;83.90
11426;DHT22;5769;47.998;7.788;2023-07-29T10:11:05;22.50;83.80
11426;DHT22;5769;47.998;7.788;2023-07-29T10:13:35;22.50;83.80
11426;DHT22;5769;47.998;7.788;2023-07-29T10:16:03;22.70;83.90
11426;DHT22;5769;47.998;7.788;2023-07-29T10:18:34;22.50;83.90
11426;DHT22;5769;47.998;7.788;2023-07-29T10:21:03;22.70;84.10
11426;DHT22;5769;47.998;7.788;2023-07-29T10:23:34;22.70;84.00
11426;DHT22;5769;47.998;7.788;2023-07-29T10:26:03;22.60;84.00
11426;DHT22;5769;47.998;7.788;2023-07-29T10:28:37;22.50;83.90
11426;DHT22;5769;47.998;7.788;2023-07-29T10:31:06;22.50;83.80
11426;DHT22;5769;47.998;7.788;2023-07-29T10:33:35;22.60;83.90
11426;DHT22;5769;47.998;7.788;2023-07-29T10:36:04;22.50;83.80
11426;DHT22;5769;47.998;7.788;2023-07-29T10:38:36;22.70;84.00
11426;DHT22;5769;47.998;7.788;2023-07-29T10:41:06;22.50;83.80
11426;DHT22;5769;47.998;7.788;2023-07-29T10:43:34;22.50;83.80
11426;DHT22;5769;47.998;7.788;2023-07-29T10:46:15;22.50;83.80
11426;DHT22;5769;47.998;7.788;2023-07-29T10:48:44;22.50;83.70
11426;DHT22;5769;47.998;7.788;2023-07-29T10:51:28;22.60;83.90
11426;DHT22;5769;47.998;7.788;2023-07-29T10:53:59;22.50;83.90
11426;DHT22;5769;47.998;7.788;2023-07-29T10:56:28;22.70;84.10
11426;DHT22;5769;47.998;7.788;2023-07-29T10:58:56;22.70;84.20
11426;DHT22;5769;47.998;7.788;2023-07-29T11:01:27;22.70;84.20
11426;DHT22;5769;47.998;7.788;2023-07-29T11:04:22;22.60;84.50
11426;DHT22;5769;47.998;7.788;2023-07-29T11:07:22;22.60;84.60
11426;DHT22;5769;47.998;7.788;2023-07-29T11:09:59;22.60;85.10
11426;DHT22;5769;47.998;7.788;2023-07-29T11:12:44;22.60;85.60
11426;DHT22;5769;47.998;7.788;2023-07-29T11:15:13;22.50;85.10
11426;DHT22;5769;47.998;7.788;2023-07-29T11:17:42;22.50;85.00
11426;DHT22;5769;47.998;7.788;2023-07-29T11:20:09;22.60;85.30
11426;DHT22;5769;47.998;7.788;2023-07-29T11:22:38;22.50;85.40
11426;DHT22;5769;47.998;7.788;2023-07-29T11:25:07;22.50;85.60
11426;DHT22;5769;47.998;7.788;2023-07-29T11:27:34;22.70;85.90
11426;DHT22;5769;47.998;7.788;2023-07-29T11:30:03;22.70;86.00
11426;DHT22;5769;47.998;7.788;2023-07-29T11:32:32;22.60;85.80
11426;DHT22;5769;47.998;7.788;2023-07-29T11:35:02;22.70;85.90
11426;DHT22;5769;47.998;7.788;2023-07-29T11:37:29;22.50;85.90
11426;DHT22;5769;47.998;7.788;2023-07-29T11:39:57;22.60;86.10
11426;DHT22;5769;47.998;7.788;2023-07-29T11:42:24;22.50;86.00
11426;DHT22;5769;47.998;7.788;2023-07-29T11:44:52;22.50;86.10
11426;DHT22;5769;47.998;7.788;2023-07-29T11:47:19;22.60;86.10
11426;DHT22;5769;47.998;7.788;2023-07-29T11:49:45;22.60;86.20
11426;DHT22;5769;47.998;7.788;2023-07-29T11:52:12;22.50;86.20
11426;DHT22;5769;47.998;7.788;2023-07-29T11:54:39;22.60;86.30
11426;DHT22;5769;47.998;7.788;2023-07-29T11:57:08;22.60;86.40
11426;DHT22;5769;47.998;7.788;2023-07-29T11:59:36;22.50;86.30
11426;DHT22;5769;47.998;7.788;2023-07-29T12:02:07;22.50;86.40
11426;DHT22;5769;47.998;7.788;2023-07-29T12:04:35;22.60;86.50
11426;DHT22;5769;47.998;7.788;2023-07-29T12:07:03;22.70;86.60
11426;DHT22;5769;47.998;7.788;2023-07-29T12:09:30;22.70;86.70
11426;DHT22;5769;47.998;7.788;2023-07-29T12:11:57;22.50;86.50
11426;DHT22;5769;47.998;7.788;2023-07-29T12:14:28;22.50;86.50
11426;DHT22;5769;47.998;7.788;2023-07-29T12:16:55;22.60;86.70
11426;DHT22;5769;47.998;7.788;2023-07-29T12:19:22;22.70;86.50
11426;DHT22;5769;47.998;7.788;2023-07-29T12:21:50;22.70;86.30
11426;DHT22;5769;47.998;7.788;2023-07-29T12:24:17;22.70;86.30
11426;DHT22;5769;47.998;7.788;2023-07-29T12:26:44;22.60;86.60
11426;DHT22;5769;47.998;7.788;2023-07-29T12:29:12;22.70;86.70
11426;DHT22;5769;47.998;7.788;2023-07-29T12:31:40;22.60;86.60
11426;DHT22;5769;47.998;7.788;2023-07-29T12:34:07;22.70;86.70
11426;DHT22;5769;47.998;7.788;2023-07-29T12:36:42;22.60;86.60
11426;DHT22;5769;47.998;7.788;2023-07-29T12:39:16;22.70;86.70
11426;DHT22;5769;47.998;7.788;2023-07-29T12:41:43;22.60;86.70
11426;DHT22;5769;47.998;7.788;2023-07-29T12:44:10;22.60;86.90
11426;DHT22;5769;47.998;7.788;2023-07-29T12:46:36;22.70;87.00
11426;DHT22;5769;47.998;7.788;2023-07-29T12:49:06;22.50;86.80
11426;DHT22;5769;47.998;7.788;2023-07-29T12:51:32;22.70;87.00
11426;DHT22;5769;47.998;7.788;2023-07-29T12:54:00;22.70;87.00
11426;DHT22;5769;47.998;7.788;2023-07-29T12:56:28;22.60;87.00
11426;DHT22;5769;47.998;7.788;2023-07-29T12:58:55;22.60;87.10
11426;DHT22;5769;47.998;7.788;2023-07-29T13:01:22;22.60;87.00
11426;DHT22;5769;47.998;7.788;2023-07-29T13:03:48;22.60;87.00
11426;DHT22;5769;47.998;7.788;2023-07-29T13:06:17;22.70;87.00
11426;DHT22;5769;47.998;7.788;2023-07-29T13:08:44;22.60;87.10
11426;DHT22;5769;47.998;7.788;2023-07-29T13:11:11;22.60;87.10
11426;DHT22;5769;47.998;7.788;2023-07-29T13:13:38;22.60;87.20
11426;DHT22;5769;47.998;7.788;2023-07-29T13:16:04;22.60;87.30
11426;DHT22;5769;47.998;7.788;2023-07-29T13:18:32;22.60;87.10
11426;DHT22;5769;47.998;7.788;2023-07-29T13:20:59;22.60;87.30
11426;DHT22;5769;47.998;7.788;2023-07-29T13:23:28;22.60;87.20
11426;DHT22;5769;47.998;7.788;2023-07-29T13:25:55;22.70;87.20
11426;DHT22;5769;47.998;7.788;2023-07-29T13:28:22;22.70;87.20
11426;DHT22;5769;47.998;7.788;2023-07-29T13:30:49;22.50;87.10
11426;DHT22;5769;47.998;7.788;2023-07-29T13:33:15;22.70;87.30
11426;DHT22;5769;47.998;7.788;2023-07-29T13:35:43;22.50;87.20
11426;DHT22;5769;47.998;7.788;2023-07-29T13:38:09;22.80;87.40
11426;DHT22;5769;47.998;7.788;2023-07-29T13:40:38;22.60;87.30
11426;DHT22;5769;47.998;7.788;2023-07-29T13:43:04;22.60;87.10
11426;DHT22;5769;47.998;7.788;2023-07-29T13:45:31;22.70;87.30
11426;DHT22;5769;47.998;7.788;2023-07-29T13:47:58;22.60;87.10
11426;DHT22;5769;47.998;7.788;2023-07-29T13:50:24;22.50;87.00
11426;DHT22;5769;47.998;7.788;2023-07-29T13:52:54;22.70;87.30
11426;DHT22;5769;47.998;7.788;2023-07-29T13:55:21;22.70;87.00
11426;DHT22;5769;47.998;7.788;2023-07-29T13:57:49;22.60;87.30
11426;DHT22;5769;47.998;7.788;2023-07-29T14:00:16;22.80;87.50
11426;DHT22;5769;47.998;7.788;2023-07-29T14:02:42;22.60;87.20
11426;DHT22;5769;47.998;7.788;2023-07-29T14:05:09;22.60;87.40
11426;DHT22;5769;47.998;7.788;2023-07-29T14:07:37;22.70;87.40
11426;DHT22;5769;47.998;7.788;2023-07-29T14:10:04;22.70;87.70
11426;DHT22;5769;47.998;7.788;2023-07-29T14:12:31;22.60;87.50
11426;DHT22;5769;47.998;7.788;2023-07-29T14:14:59;22.60;87.60
11426;DHT22;5769;47.998;7.788;2023-07-29T14:17:26;22.60;87.40
11426;DHT22;5769;47.998;7.788;2023-07-29T14:20:02;22.60;87.40
11426;DHT22;5769;47.998;7.788;2023-07-29T14:22:30;22.80;87.60
11426;DHT22;5769;47.998;7.788;2023-07-29T14:25:00;22.60;87.40
11426;DHT22;5769;47.998;7.788;2023-07-29T14:27:27;22.80;87.30
11426;DHT22;5769;47.998;7.788;2023-07-29T14:29:53;22.60;87.30
11426;DHT22;5769;47.998;7.788;2023-07-29T14:32:22;22.70;87.40
11426;DHT22;5769;47.998;7.788;2023-07-29T14:34:49;22.80;87.50
11426;DHT22;5769;47.998;7.788;2023-07-29T14:37:16;22.60;87.50
11426;DHT22;5769;47.998;7.788;2023-07-29T14:39:43;22.70;87.50
11426;DHT22;5769;47.998;7.788;2023-07-29T14:42:09;22.60;87.50
11426;DHT22;5769;47.998;7.788;2023-07-29T14:44:36;22.60;87.50
11426;DHT22;5769;47.998;7.788;2023-07-29T14:47:03;22.60;87.10
11426;DHT22;5769;47.998;7.788;2023-07-29T14:49:32;22.60;87.20
11426;DHT22;5769;47.998;7.788;2023-07-29T14:51:58;22.60;87.10
11426;DHT22;5769;47.998;7.788;2023-07-29T14:54:25;22.60;87.30
11426;DHT22;5769;47.998;7.788;2023-07-29T14:56:52;22.50;87.30
11426;DHT22;5769;47.998;7.788;2023-07-29T14:59:21;22.60;87.50
11426;DHT22;5769;47.998;7.788;2023-07-29T15:01:48;22.60;87.50
11426;DHT22;5769;47.998;7.788;2023-07-29T15:04:15;22.60;87.50
11426;DHT22;5769;47.998;7.788;2023-07-29T15:06:43;22.60;87.50
11426;DHT22;5769;47.998;7.788;2023-07-29T15:09:11;22.60;87.40
11426;DHT22;5769;47.998;7.788;2023-07-29T15:11:38;22.60;87.50
11426;DHT22;5769;47.998;7.788;2023-07-29T15:14:12;22.60;87.60
11426;DHT22;5769;47.998;7.788;2023-07-29T15:16:38;22.80;87.60
11426;DHT22;5769;47.998;7.788;2023-07-29T15:19:05;22.60;87.60
11426;DHT22;5769;47.998;7.788;2023-07-29T15:21:32;22.60;87.50
11426;DHT22;5769;47.998;7.788;2023-07-29T15:24:01;22.80;87.60
11426;DHT22;5769;47.998;7.788;2023-07-29T15:26:27;22.70;87.70
11426;DHT22;5769;47.998;7.788;2023-07-29T15:28:54;22.60;87.50
11426;DHT22;5769;47.998;7.788;2023-07-29T15:31:21;22.60;87.40
11426;DHT22;5769;47.998;7.788;2023-07-29T15:33:48;22.60;87.90
11426;DHT22;5769;47.998;7.788;2023-07-29T15:36:15;22.50;87.50
11426;DHT22;5769;47.998;7.788;2023-07-29T15:38:41;22.60;87.60
11426;DHT22;5769;47.998;7.788;2023-07-29T15:41:09;22.60;87.20
11426;DHT22;5769;47.998;7.788;2023-07-29T15:43:36;22.70;87.70
11426;DHT22;5769;47.998;7.788;2023-07-29T15:46:03;22.60;87.50
11426;DHT22;5769;47.998;7.788;2023-07-29T15:48:30;22.60;87.80
11426;DHT22;5769;47.998;7.788;2023-07-29T15:50:56;22.60;87.80